KLGB/LGB METAR and TAF weather

Enter ICAO airport designator
Station Type Date Time Source
KLGB METAR 2020/11/27 13:53 UTC NOAA

KLGB 271353Z AUTO 30003KT 9SM CLR 08/M04 A3012 RMK AO2 SLP200 T00831044


Station Type Date Time Source
KLGB Decoded METAR 2020/11/27 13:53 UTC NOAA

LONG BEACH AIRPORT, CA, United States (KLGB) 33-49N 118-09W 10M
Nov 27, 2020 - 08:53 AM EST / 2020.11.27 1353 UTC
Wind: from the WNW (300 degrees) at 3 MPH (3 KT):0
Visibility: 9 mile(s):0
Sky conditions: clear
Temperature: 46.9 F (8.3 C)
Dew Point: 24.1 F (-4.4 C)
Relative Humidity: 40%
Pressure (altimeter): 30.12 in. Hg (1019 hPa)
ob: KLGB 271353Z AUTO 30003KT 9SM CLR 08/M04 A3012 RMK AO2 SLP200 T00831044
cycle: 14

Station Type Date Time Source
KLGB TAF 2020/11/27 12:45 UTC NOAA

TAF KLGB 271138Z 2712/2812 VRB05KT P6SM SKC
FM271900 07010KT P6SM SKC
FM280300 VRB05KT P6SM SKC

Example: see airport list